sensor_id;sensor_type;location;lat;lon;timestamp;pressure;altitude;pressure_sealevel;temperature;humidity
66547;BME280;53400;50.364;14.874;2023-04-06T00:00:35;99083.72;;;-1.18;87.49
66547;BME280;53400;50.364;14.874;2023-04-06T00:03:16;99087.56;;;-0.96;86.17
66547;BME280;53400;50.364;14.874;2023-04-06T00:05:43;99078.72;;;-0.86;84.35
66547;BME280;53400;50.364;14.874;2023-04-06T00:08:13;99081.91;;;-0.66;83.86
66547;BME280;53400;50.364;14.874;2023-04-06T00:10:41;99076.31;;;-0.72;84.42
66547;BME280;53400;50.364;14.874;2023-04-06T00:13:08;99073.44;;;-0.95;84.54
66547;BME280;53400;50.364;14.874;2023-04-06T00:15:35;99083.00;;;-0.85;84.70
66547;BME280;53400;50.364;14.874;2023-04-06T00:18:03;99076.22;;;-1.04;85.47
66547;BME280;53400;50.364;14.874;2023-04-06T00:20:29;99080.78;;;-1.14;86.42
66547;BME280;53400;50.364;14.874;2023-04-06T00:22:56;99076.38;;;-1.06;85.58
66547;BME280;53400;50.364;14.874;2023-04-06T00:25:25;99068.38;;;-1.39;88.16
66547;BME280;53400;50.364;14.874;2023-04-06T00:27:52;99070.38;;;-1.58;90.74
66547;BME280;53400;50.364;14.874;2023-04-06T00:30:19;99077.25;;;-1.31;88.45
66547;BME280;53400;50.364;14.874;2023-04-06T00:32:45;99076.00;;;-1.19;87.38
66547;BME280;53400;50.364;14.874;2023-04-06T00:35:12;99074.06;;;-1.09;88.19
66547;BME280;53400;50.364;14.874;2023-04-06T00:37:39;99077.06;;;-1.38;88.85
66547;BME280;53400;50.364;14.874;2023-04-06T00:40:08;99066.28;;;-1.61;90.33
66547;BME280;53400;50.364;14.874;2023-04-06T00:42:36;99064.88;;;-1.47;90.80
66547;BME280;53400;50.364;14.874;2023-04-06T00:45:03;99067.41;;;-1.29;88.40
66547;BME280;53400;50.364;14.874;2023-04-06T00:47:33;99067.09;;;-1.26;87.35
66547;BME280;53400;50.364;14.874;2023-04-06T00:50:00;99072.28;;;-1.43;88.59
66547;BME280;53400;50.364;14.874;2023-04-06T00:52:27;99068.22;;;-1.29;88.23
66547;BME280;53400;50.364;14.874;2023-04-06T00:54:53;99064.44;;;-1.34;87.72
66547;BME280;53400;50.364;14.874;2023-04-06T00:57:20;99065.81;;;-1.56;89.18
66547;BME280;53400;50.364;14.874;2023-04-06T00:59:49;99062.75;;;-1.44;89.13
66547;BME280;53400;50.364;14.874;2023-04-06T01:02:16;99064.16;;;-1.57;89.20
66547;BME280;53400;50.364;14.874;2023-04-06T01:04:45;99067.63;;;-1.57;89.47
66547;BME280;53400;50.364;14.874;2023-04-06T01:07:12;99064.03;;;-1.82;91.23
66547;BME280;53400;50.364;14.874;2023-04-06T01:09:38;99062.53;;;-1.85;91.84
66547;BME280;53400;50.364;14.874;2023-04-06T01:12:07;99060.13;;;-1.78;91.03
66547;BME280;53400;50.364;14.874;2023-04-06T01:14:34;99057.59;;;-1.88;91.10
66547;BME280;53400;50.364;14.874;2023-04-06T01:17:02;99065.97;;;-1.84;90.93
66547;BME280;53400;50.364;14.874;2023-04-06T01:19:29;99057.34;;;-1.76;91.23
66547;BME280;53400;50.364;14.874;2023-04-06T01:21:56;99058.97;;;-1.75;90.63
66547;BME280;53400;50.364;14.874;2023-04-06T01:24:26;99060.41;;;-1.81;91.04
66547;BME280;53400;50.364;14.874;2023-04-06T01:26:54;99059.59;;;-1.81;90.92
66547;BME280;53400;50.364;14.874;2023-04-06T01:29:20;99054.72;;;-1.76;90.44
66547;BME280;53400;50.364;14.874;2023-04-06T01:31:47;99052.09;;;-1.76;90.44
66547;BME280;53400;50.364;14.874;2023-04-06T01:34:13;99052.13;;;-1.68;89.66
66547;BME280;53400;50.364;14.874;2023-04-06T01:36:40;99056.72;;;-1.70;88.23
66547;BME280;53400;50.364;14.874;2023-04-06T01:39:07;99047.28;;;-1.55;87.44
66547;BME280;53400;50.364;14.874;2023-04-06T01:41:36;99054.47;;;-1.57;88.46
66547;BME280;53400;50.364;14.874;2023-04-06T01:44:02;99047.69;;;-1.68;88.36
66547;BME280;53400;50.364;14.874;2023-04-06T01:46:30;99040.13;;;-1.71;87.88
66547;BME280;53400;50.364;14.874;2023-04-06T01:48:56;99040.53;;;-1.83;90.00
66547;BME280;53400;50.364;14.874;2023-04-06T01:51:23;99041.97;;;-1.89;90.05
66547;BME280;53400;50.364;14.874;2023-04-06T01:53:50;99038.34;;;-1.96;91.53
66547;BME280;53400;50.364;14.874;2023-04-06T01:56:19;99033.53;;;-2.01;91.31
66547;BME280;53400;50.364;14.874;2023-04-06T01:58:47;99039.31;;;-1.97;91.70
66547;BME280;53400;50.364;14.874;2023-04-06T02:01:14;99032.59;;;-2.00;91.67
66547;BME280;53400;50.364;14.874;2023-04-06T02:03:41;99033.41;;;-1.73;89.46
66547;BME280;53400;50.364;14.874;2023-04-06T02:06:09;99038.91;;;-1.08;86.25
66547;BME280;53400;50.364;14.874;2023-04-06T02:08:38;99040.94;;;-0.77;82.46
66547;BME280;53400;50.364;14.874;2023-04-06T02:11:04;99039.13;;;-0.77;82.75
66547;BME280;53400;50.364;14.874;2023-04-06T02:13:31;99040.94;;;-0.77;82.97
66547;BME280;53400;50.364;14.874;2023-04-06T02:16:00;99037.97;;;-0.90;83.59
66547;BME280;53400;50.364;14.874;2023-04-06T02:18:27;99037.56;;;-1.20;83.46
66547;BME280;53400;50.364;14.874;2023-04-06T02:20:54;99031.72;;;-1.40;84.08
66547;BME280;53400;50.364;14.874;2023-04-06T02:23:22;99040.78;;;-1.43;85.20
66547;BME280;53400;50.364;14.874;2023-04-06T02:25:50;99040.34;;;-1.56;86.56
66547;BME280;53400;50.364;14.874;2023-04-06T02:28:17;99039.19;;;-1.62;87.13
66547;BME280;53400;50.364;14.874;2023-04-06T02:30:48;99041.63;;;-1.68;86.63
66547;BME280;53400;50.364;14.874;2023-04-06T02:33:20;99037.47;;;-1.79;87.81
66547;BME280;53400;50.364;14.874;2023-04-06T02:35:47;99042.03;;;-1.81;88.22
66547;BME280;53400;50.364;14.874;2023-04-06T02:38:13;99051.66;;;-1.90;89.68
66547;BME280;53400;50.364;14.874;2023-04-06T02:40:40;99053.56;;;-1.74;89.67
66547;BME280;53400;50.364;14.874;2023-04-06T02:43:06;99044.91;;;-1.66;89.30
66547;BME280;53400;50.364;14.874;2023-04-06T02:45:32;99052.84;;;-1.58;89.39
66547;BME280;53400;50.364;14.874;2023-04-06T02:47:59;99054.59;;;-1.67;87.68
66547;BME280;53400;50.364;14.874;2023-04-06T02:50:29;99056.41;;;-1.67;89.90
66547;BME280;53400;50.364;14.874;2023-04-06T02:52:55;99058.50;;;-1.71;91.24
66547;BME280;53400;50.364;14.874;2023-04-06T02:55:23;99054.28;;;-1.90;90.39
66547;BME280;53400;50.364;14.874;2023-04-06T02:57:49;99054.53;;;-1.75;90.97
66547;BME280;53400;50.364;14.874;2023-04-06T03:00:18;99060.47;;;-1.73;89.81
66547;BME280;53400;50.364;14.874;2023-04-06T03:02:45;99054.41;;;-1.73;89.51
66547;BME280;53400;50.364;14.874;2023-04-06T03:05:14;99052.44;;;-1.71;90.08
66547;BME280;53400;50.364;14.874;2023-04-06T03:07:42;99053.84;;;-1.51;89.65
66547;BME280;53400;50.364;14.874;2023-04-06T03:10:10;99058.72;;;-1.30;89.25
66547;BME280;53400;50.364;14.874;2023-04-06T03:12:36;99059.72;;;-1.23;89.38
66547;BME280;53400;50.364;14.874;2023-04-06T03:15:04;99052.97;;;-1.33;88.77
66547;BME280;53400;50.364;14.874;2023-04-06T03:17:31;99052.94;;;-1.68;89.26
66547;BME280;53400;50.364;14.874;2023-04-06T03:19:58;99050.78;;;-1.72;89.53
66547;BME280;53400;50.364;14.874;2023-04-06T03:22:25;99057.88;;;-1.65;89.69
66547;BME280;53400;50.364;14.874;2023-04-06T03:24:52;99046.88;;;-1.68;90.08
66547;BME280;53400;50.364;14.874;2023-04-06T03:27:19;99054.19;;;-1.80;90.09
66547;BME280;53400;50.364;14.874;2023-04-06T03:29:45;99052.72;;;-1.82;91.02
66547;BME280;53400;50.364;14.874;2023-04-06T03:32:12;99053.66;;;-1.92;91.08
66547;BME280;53400;50.364;14.874;2023-04-06T03:34:39;99057.47;;;-2.04;91.42
66547;BME280;53400;50.364;14.874;2023-04-06T03:37:05;99070.38;;;-2.11;93.05
66547;BME280;53400;50.364;14.874;2023-04-06T03:39:31;99066.19;;;-2.03;92.69
66547;BME280;53400;50.364;14.874;2023-04-06T03:42:00;99069.94;;;-2.06;92.99
66547;BME280;53400;50.364;14.874;2023-04-06T03:44:27;99057.72;;;-1.97;92.16
66547;BME280;53400;50.364;14.874;2023-04-06T03:46:58;99067.34;;;-1.98;92.25
66547;BME280;53400;50.364;14.874;2023-04-06T03:49:25;99072.84;;;-1.91;91.61
66547;BME280;53400;50.364;14.874;2023-04-06T03:51:51;99072.53;;;-1.88;90.59
66547;BME280;53400;50.364;14.874;2023-04-06T03:54:18;99072.78;;;-1.73;90.84
66547;BME280;53400;50.364;14.874;2023-04-06T03:56:45;99079.09;;;-1.84;89.13
66547;BME280;53400;50.364;14.874;2023-04-06T03:59:13;99083.81;;;-1.70;89.56
66547;BME280;53400;50.364;14.874;2023-04-06T04:01:40;99084.97;;;-1.90;89.60
66547;BME280;53400;50.364;14.874;2023-04-06T04:04:07;99082.81;;;-1.95;89.80
66547;BME280;53400;50.364;14.874;2023-04-06T04:06:33;99079.72;;;-1.90;89.72
66547;BME280;53400;50.364;14.874;2023-04-06T04:09:02;99079.22;;;-1.94;90.27
66547;BME280;53400;50.364;14.874;2023-04-06T04:11:29;99074.72;;;-2.01;90.34
66547;BME280;53400;50.364;14.874;2023-04-06T04:13:55;99078.94;;;-2.09;90.41
66547;BME280;53400;50.364;14.874;2023-04-06T04:16:25;99076.19;;;-2.25;90.98
66547;BME280;53400;50.364;14.874;2023-04-06T04:18:54;99086.69;;;-2.25;92.51
66547;BME280;53400;50.364;14.874;2023-04-06T04:21:20;99072.22;;;-2.29;92.77
66547;BME280;53400;50.364;14.874;2023-04-06T04:23:48;99079.47;;;-2.23;92.98
66547;BME280;53400;50.364;14.874;2023-04-06T04:26:16;99079.47;;;-2.23;93.15
66547;BME280;53400;50.364;14.874;2023-04-06T04:28:42;99087.22;;;-2.21;92.78
66547;BME280;53400;50.364;14.874;2023-04-06T04:31:09;99092.19;;;-2.10;92.99
66547;BME280;53400;50.364;14.874;2023-04-06T04:33:39;99086.31;;;-2.12;92.72
66547;BME280;53400;50.364;14.874;2023-04-06T04:36:07;99091.31;;;-1.49;100.00
66547;BME280;53400;50.364;14.874;2023-04-06T04:38:36;99092.13;;;-1.74;94.38
66547;BME280;53400;50.364;14.874;2023-04-06T04:41:03;99085.91;;;-1.99;92.86
66547;BME280;53400;50.364;14.874;2023-04-06T04:43:30;99093.91;;;-2.01;93.09
66547;BME280;53400;50.364;14.874;2023-04-06T04:45:57;99090.22;;;-1.90;93.24
66547;BME280;53400;50.364;14.874;2023-04-06T04:48:26;99092.53;;;-1.87;92.70
66547;BME280;53400;50.364;14.874;2023-04-06T04:50:54;99101.25;;;-1.87;93.56
66547;BME280;53400;50.364;14.874;2023-04-06T04:53:23;99102.06;;;-1.60;93.06
66547;BME280;53400;50.364;14.874;2023-04-06T04:55:49;99094.13;;;-1.42;92.20
66547;BME280;53400;50.364;14.874;2023-04-06T04:58:16;99102.97;;;-1.43;90.97
66547;BME280;53400;50.364;14.874;2023-04-06T05:00:44;99097.09;;;-1.37;91.09
66547;BME280;53400;50.364;14.874;2023-04-06T05:03:16;99102.91;;;-1.25;92.01
66547;BME280;53400;50.364;14.874;2023-04-06T05:05:46;99112.72;;;-0.42;92.95
66547;BME280;53400;50.364;14.874;2023-04-06T05:08:15;99102.97;;;0.23;90.25
66547;BME280;53400;50.364;14.874;2023-04-06T05:10:41;99111.63;;;0.65;87.13
66547;BME280;53400;50.364;14.874;2023-04-06T05:13:15;99104.75;;;0.39;84.91
66547;BME280;53400;50.364;14.874;2023-04-06T05:15:58;99113.13;;;0.67;84.94
66547;BME280;53400;50.364;14.874;2023-04-06T05:18:26;99105.47;;;1.28;84.06
66547;BME280;53400;50.364;14.874;2023-04-06T05:20:53;99100.06;;;1.91;81.56
66547;BME280;53400;50.364;14.874;2023-04-06T05:23:21;99102.97;;;2.71;91.45
66547;BME280;53400;50.364;14.874;2023-04-06T05:25:48;99107.13;;;2.51;78.65
66547;BME280;53400;50.364;14.874;2023-04-06T05:28:15;99108.66;;;2.45;81.13
66547;BME280;53400;50.364;14.874;2023-04-06T05:30:42;99105.41;;;2.88;78.16
66547;BME280;53400;50.364;14.874;2023-04-06T05:33:10;99113.19;;;3.83;78.04
66547;BME280;53400;50.364;14.874;2023-04-06T05:35:38;99113.06;;;4.13;76.10
66547;BME280;53400;50.364;14.874;2023-04-06T05:38:07;99122.47;;;4.16;73.59
66547;BME280;53400;50.364;14.874;2023-04-06T05:40:36;99119.34;;;4.33;72.68
66547;BME280;53400;50.364;14.874;2023-04-06T05:43:03;99115.19;;;4.24;71.49
66547;BME280;53400;50.364;14.874;2023-04-06T05:45:30;99122.38;;;4.30;70.85
66547;BME280;53400;50.364;14.874;2023-04-06T05:47:58;99122.34;;;5.28;71.78
66547;BME280;53400;50.364;14.874;2023-04-06T05:50:25;99121.13;;;5.24;69.27
66547;BME280;53400;50.364;14.874;2023-04-06T05:52:54;99115.56;;;5.12;70.18
66547;BME280;53400;50.364;14.874;2023-04-06T05:55:21;99121.97;;;5.38;69.00
66547;BME280;53400;50.364;14.874;2023-04-06T05:57:52;99118.75;;;5.49;69.12
66547;BME280;53400;50.364;14.874;2023-04-06T06:00:20;99123.84;;;5.44;66.30
66547;BME280;53400;50.364;14.874;2023-04-06T06:02:47;99116.25;;;5.41;66.96
66547;BME280;53400;50.364;14.874;2023-04-06T06:05:15;99121.38;;;4.94;68.52
66547;BME280;53400;50.364;14.874;2023-04-06T06:07:42;99111.75;;;6.03;67.17
66547;BME280;53400;50.364;14.874;2023-04-06T06:10:09;99113.16;;;6.52;65.75
66547;BME280;53400;50.364;14.874;2023-04-06T06:12:36;99116.47;;;7.25;62.86
66547;BME280;53400;50.364;14.874;2023-04-06T06:15:06;99105.69;;;6.94;62.62
66547;BME280;53400;50.364;14.874;2023-04-06T06:17:33;99116.38;;;6.80;64.46
66547;BME280;53400;50.364;14.874;2023-04-06T06:20:00;99112.75;;;7.26;62.86
66547;BME280;53400;50.364;14.874;2023-04-06T06:22:29;99114.84;;;7.24;62.82
66547;BME280;53400;50.364;14.874;2023-04-06T06:24:55;99108.25;;;7.27;63.15
66547;BME280;53400;50.364;14.874;2023-04-06T06:27:22;99113.06;;;7.50;62.51
66547;BME280;53400;50.364;14.874;2023-04-06T06:29:50;99104.47;;;7.48;61.03
66547;BME280;53400;50.364;14.874;2023-04-06T06:32:18;99112.50;;;7.73;61.51
66547;BME280;53400;50.364;14.874;2023-04-06T06:34:45;99112.78;;;7.96;61.54
66547;BME280;53400;50.364;14.874;2023-04-06T06:37:13;99104.66;;;7.85;61.38
66547;BME280;53400;50.364;14.874;2023-04-06T06:39:40;99107.88;;;8.25;60.12
66547;BME280;53400;50.364;14.874;2023-04-06T06:42:08;99111.25;;;8.39;60.97
66547;BME280;53400;50.364;14.874;2023-04-06T06:44:34;99103.91;;;8.59;59.38
66547;BME280;53400;50.364;14.874;2023-04-06T06:47:02;99101.50;;;8.51;56.85
66547;BME280;53400;50.364;14.874;2023-04-06T06:49:30;99108.66;;;8.94;58.99
66547;BME280;53400;50.364;14.874;2023-04-06T06:51:57;99111.94;;;8.96;59.88
66547;BME280;53400;50.364;14.874;2023-04-06T06:54:23;99106.44;;;8.91;60.04
66547;BME280;53400;50.364;14.874;2023-04-06T06:56:51;99108.28;;;8.90;60.44
66547;BME280;53400;50.364;14.874;2023-04-06T06:59:17;99106.66;;;8.71;59.72
66547;BME280;53400;50.364;14.874;2023-04-06T07:01:45;99115.69;;;8.88;59.12
66547;BME280;53400;50.364;14.874;2023-04-06T07:04:11;99115.78;;;9.18;58.09
66547;BME280;53400;50.364;14.874;2023-04-06T07:06:39;99115.59;;;9.02;57.75
66547;BME280;53400;50.364;14.874;2023-04-06T07:09:08;99108.97;;;9.04;59.01
66547;BME280;53400;50.364;14.874;2023-04-06T07:11:40;99110.88;;;9.34;58.48
66547;BME280;53400;50.364;14.874;2023-04-06T07:14:07;99107.19;;;8.98;55.30
66547;BME280;53400;50.364;14.874;2023-04-06T07:16:35;99099.84;;;8.93;57.10
66547;BME280;53400;50.364;14.874;2023-04-06T07:19:01;99109.09;;;9.09;57.30
66547;BME280;53400;50.364;14.874;2023-04-06T07:21:28;99105.59;;;9.46;55.11
66547;BME280;53400;50.364;14.874;2023-04-06T07:23:55;99109.56;;;9.55;56.29
66547;BME280;53400;50.364;14.874;2023-04-06T07:26:23;99108.13;;;9.40;53.87
66547;BME280;53400;50.364;14.874;2023-04-06T07:28:49;99112.03;;;9.56;56.26
66547;BME280;53400;50.364;14.874;2023-04-06T07:31:16;99107.91;;;9.24;55.25
66547;BME280;53400;50.364;14.874;2023-04-06T07:33:44;99113.34;;;9.17;55.94
66547;BME280;53400;50.364;14.874;2023-04-06T07:36:11;99108.59;;;9.37;54.50
66547;BME280;53400;50.364;14.874;2023-04-06T07:38:37;99114.25;;;9.59;53.52
66547;BME280;53400;50.364;14.874;2023-04-06T07:41:05;99103.63;;;8.67;54.51
66547;BME280;53400;50.364;14.874;2023-04-06T07:43:32;99113.56;;;8.79;55.58
66547;BME280;53400;50.364;14.874;2023-04-06T07:45:59;99109.91;;;8.91;56.15
66547;BME280;53400;50.364;14.874;2023-04-06T07:48:27;99112.91;;;9.02;53.55
66547;BME280;53400;50.364;14.874;2023-04-06T07:51:00;99116.84;;;9.17;56.96
66547;BME280;53400;50.364;14.874;2023-04-06T07:53:28;99097.97;;;8.76;55.39
66547;BME280;53400;50.364;14.874;2023-04-06T07:55:57;99107.25;;;9.10;54.26
66547;BME280;53400;50.364;14.874;2023-04-06T07:58:25;99108.16;;;9.22;53.63
66547;BME280;53400;50.364;14.874;2023-04-06T08:00:52;99103.22;;;7.89;54.22
66547;BME280;53400;50.364;14.874;2023-04-06T08:03:18;99098.00;;;8.00;56.23
66547;BME280;53400;50.364;14.874;2023-04-06T08:05:51;99096.19;;;8.69;54.15
66547;BME280;53400;50.364;14.874;2023-04-06T08:08:19;99094.78;;;8.17;56.44
66547;BME280;53400;50.364;14.874;2023-04-06T08:10:50;99092.59;;;7.75;54.58
66547;BME280;53400;50.364;14.874;2023-04-06T08:13:16;99094.19;;;7.06;55.28
66547;BME280;53400;50.364;14.874;2023-04-06T08:15:47;99093.31;;;6.41;58.03
66547;BME280;53400;50.364;14.874;2023-04-06T08:18:14;99094.75;;;7.15;59.88
66547;BME280;53400;50.364;14.874;2023-04-06T08:20:40;99105.56;;;7.72;58.94
66547;BME280;53400;50.364;14.874;2023-04-06T08:23:07;99096.16;;;7.31;56.30
66547;BME280;53400;50.364;14.874;2023-04-06T08:25:36;99097.03;;;7.56;55.72
66547;BME280;53400;50.364;14.874;2023-04-06T08:28:02;99089.38;;;7.98;52.95
66547;BME280;53400;50.364;14.874;2023-04-06T08:30:29;99088.31;;;8.31;53.63
66547;BME280;53400;50.364;14.874;2023-04-06T08:32:56;99089.22;;;8.68;51.92
66547;BME280;53400;50.364;14.874;2023-04-06T08:35:22;99084.41;;;9.14;50.89
66547;BME280;53400;50.364;14.874;2023-04-06T08:37:51;99086.25;;;9.13;49.42
66547;BME280;53400;50.364;14.874;2023-04-06T08:40:20;99086.63;;;8.80;50.67
66547;BME280;53400;50.364;14.874;2023-04-06T08:42:51;99071.03;;;8.34;48.44
66547;BME280;53400;50.364;14.874;2023-04-06T08:45:19;99081.91;;;8.39;48.62
66547;BME280;53400;50.364;14.874;2023-04-06T08:47:49;99078.94;;;8.22;48.87
66547;BME280;53400;50.364;14.874;2023-04-06T08:50:19;99077.13;;;8.84;46.31
66547;BME280;53400;50.364;14.874;2023-04-06T08:52:48;99072.13;;;8.51;48.65
66547;BME280;53400;50.364;14.874;2023-04-06T08:55:15;99075.84;;;9.24;46.58
66547;BME280;53400;50.364;14.874;2023-04-06T08:57:42;99069.84;;;9.10;45.73
66547;BME280;53400;50.364;14.874;2023-04-06T09:00:12;99074.75;;;9.31;46.42
66547;BME280;53400;50.364;14.874;2023-04-06T09:02:41;99078.19;;;8.40;48.21
66547;BME280;53400;50.364;14.874;2023-04-06T09:05:09;99074.25;;;9.04;46.72
66547;BME280;53400;50.364;14.874;2023-04-06T09:07:38;99069.25;;;9.26;46.16
66547;BME280;53400;50.364;14.874;2023-04-06T09:10:07;99076.16;;;9.15;44.40
66547;BME280;53400;50.364;14.874;2023-04-06T09:12:33;99068.00;;;8.55;46.39
66547;BME280;53400;50.364;14.874;2023-04-06T09:15:02;99072.72;;;8.03;47.50
66547;BME280;53400;50.364;14.874;2023-04-06T09:17:30;99058.84;;;8.19;48.90
66547;BME280;53400;50.364;14.874;2023-04-06T09:20:05;99063.03;;;8.95;46.90
66547;BME280;53400;50.364;14.874;2023-04-06T09:22:39;99060.88;;;9.23;44.56
66547;BME280;53400;50.364;14.874;2023-04-06T09:25:17;99056.03;;;9.31;47.19
66547;BME280;53400;50.364;14.874;2023-04-06T09:27:45;99059.41;;;9.69;44.60
66547;BME280;53400;50.364;14.874;2023-04-06T09:30:13;99066.47;;;9.63;44.02
66547;BME280;53400;50.364;14.874;2023-04-06T09:32:48;99060.50;;;9.91;43.33
66547;BME280;53400;50.364;14.874;2023-04-06T09:35:16;99057.75;;;9.56;43.27
66547;BME280;53400;50.364;14.874;2023-04-06T09:37:44;99057.56;;;9.39;43.67
66547;BME280;53400;50.364;14.874;2023-04-06T09:40:12;99052.44;;;9.37;43.72
66547;BME280;53400;50.364;14.874;2023-04-06T09:42:42;99044.84;;;9.23;42.88
66547;BME280;53400;50.364;14.874;2023-04-06T09:45:17;99046.09;;;9.92;45.22
66547;BME280;53400;50.364;14.874;2023-04-06T09:47:45;99040.97;;;10.02;43.12
66547;BME280;53400;50.364;14.874;2023-04-06T09:50:14;99039.72;;;10.05;42.23
66547;BME280;53400;50.364;14.874;2023-04-06T09:52:47;99038.75;;;9.87;43.73
66547;BME280;53400;50.364;14.874;2023-04-06T09:55:27;99035.03;;;10.00;40.82
66547;BME280;53400;50.364;14.874;2023-04-06T09:58:02;99045.69;;;9.65;40.65
66547;BME280;53400;50.364;14.874;2023-04-06T10:00:32;99036.81;;;9.23;40.92
66547;BME280;53400;50.364;14.874;2023-04-06T10:03:02;99034.50;;;9.56;39.56
66547;BME280;53400;50.364;14.874;2023-04-06T10:05:38;99030.97;;;9.98;38.40
66547;BME280;53400;50.364;14.874;2023-04-06T10:08:11;99028.63;;;9.90;38.96
66547;BME280;53400;50.364;14.874;2023-04-06T10:10:39;99021.31;;;9.97;40.63
66547;BME280;53400;50.364;14.874;2023-04-06T10:13:06;99016.53;;;9.87;38.87
66547;BME280;53400;50.364;14.874;2023-04-06T10:15:34;99029.63;;;10.30;39.62
66547;BME280;53400;50.364;14.874;2023-04-06T10:18:02;99018.91;;;9.53;38.17
66547;BME280;53400;50.364;14.874;2023-04-06T10:20:36;99018.66;;;9.55;39.58
66547;BME280;53400;50.364;14.874;2023-04-06T10:23:08;99017.59;;;9.86;39.94
66547;BME280;53400;50.364;14.874;2023-04-06T10:25:53;99031.50;;;10.30;38.01
66547;BME280;53400;50.364;14.874;2023-04-06T10:28:21;99016.91;;;10.02;37.70
66547;BME280;53400;50.364;14.874;2023-04-06T10:30:56;99026.72;;;9.67;37.84
66547;BME280;53400;50.364;14.874;2023-04-06T10:33:23;99019.66;;;9.72;37.96
66547;BME280;53400;50.364;14.874;2023-04-06T10:35:49;99025.03;;;9.42;38.75
66547;BME280;53400;50.364;14.874;2023-04-06T10:38:16;99011.78;;;10.13;39.14
66547;BME280;53400;50.364;14.874;2023-04-06T10:40:48;99009.34;;;10.46;38.06
66547;BME280;53400;50.364;14.874;2023-04-06T10:43:19;99005.97;;;10.51;40.77
66547;BME280;53400;50.364;14.874;2023-04-06T10:45:55;98996.25;;;10.85;40.54
66547;BME280;53400;50.364;14.874;2023-04-06T10:48:22;99001.06;;;11.12;37.07
66547;BME280;53400;50.364;14.874;2023-04-06T10:50:52;99003.75;;;10.60;39.06
66547;BME280;53400;50.364;14.874;2023-04-06T10:53:22;99002.50;;;10.39;37.55
66547;BME280;53400;50.364;14.874;2023-04-06T10:55:49;99006.00;;;10.39;36.61
66547;BME280;53400;50.364;14.874;2023-04-06T10:58:18;99000.97;;;10.07;37.31
66547;BME280;53400;50.364;14.874;2023-04-06T11:00:45;98996.19;;;10.09;37.37
66547;BME280;53400;50.364;14.874;2023-04-06T11:03:12;98998.50;;;9.82;37.36
66547;BME280;53400;50.364;14.874;2023-04-06T11:05:43;98996.28;;;9.91;37.76
66547;BME280;53400;50.364;14.874;2023-04-06T11:08:10;98993.63;;;10.03;38.90
66547;BME280;53400;50.364;14.874;2023-04-06T11:10:37;98991.00;;;10.90;37.64
66547;BME280;53400;50.364;14.874;2023-04-06T11:13:04;98986.00;;;11.11;36.03
66547;BME280;53400;50.364;14.874;2023-04-06T11:15:36;98970.56;;;10.61;35.46
66547;BME280;53400;50.364;14.874;2023-04-06T11:18:04;98975.19;;;11.34;35.64
66547;BME280;53400;50.364;14.874;2023-04-06T11:20:32;98984.31;;;12.34;39.73
66547;BME280;53400;50.364;14.874;2023-04-06T11:22:58;98978.66;;;12.14;36.82
66547;BME280;53400;50.364;14.874;2023-04-06T11:25:26;98980.75;;;11.16;35.81
66547;BME280;53400;50.364;14.874;2023-04-06T11:27:54;98980.19;;;10.73;36.05
66547;BME280;53400;50.364;14.874;2023-04-06T11:30:21;98974.78;;;9.98;35.86
66547;BME280;53400;50.364;14.874;2023-04-06T11:32:49;98980.34;;;9.84;36.06
66547;BME280;53400;50.364;14.874;2023-04-06T11:35:20;98979.81;;;9.40;36.68
66547;BME280;53400;50.364;14.874;2023-04-06T11:37:49;98973.19;;;9.01;36.98
66547;BME280;53400;50.364;14.874;2023-04-06T11:40:21;98975.25;;;9.29;37.92
66547;BME280;53400;50.364;14.874;2023-04-06T11:42:52;98968.47;;;9.69;36.17
66547;BME280;53400;50.364;14.874;2023-04-06T11:45:20;98963.13;;;9.69;36.89
66547;BME280;53400;50.364;14.874;2023-04-06T11:47:57;98961.75;;;10.13;36.17
66547;BME280;53400;50.364;14.874;2023-04-06T11:50:31;98964.75;;;10.92;37.10
66547;BME280;53400;50.364;14.874;2023-04-06T11:53:00;98952.75;;;10.95;35.28
66547;BME280;53400;50.364;14.874;2023-04-06T11:55:28;98947.44;;;11.12;35.52
66547;BME280;53400;50.364;14.874;2023-04-06T11:57:55;98954.91;;;11.38;37.49
66547;BME280;53400;50.364;14.874;2023-04-06T12:00:22;98942.38;;;11.61;34.17
66547;BME280;53400;50.364;14.874;2023-04-06T12:02:49;98946.91;;;11.43;35.71
66547;BME280;53400;50.364;14.874;2023-04-06T12:05:17;98949.81;;;10.68;35.08
66547;BME280;53400;50.364;14.874;2023-04-06T12:07:44;98945.34;;;11.14;34.82
66547;BME280;53400;50.364;14.874;2023-04-06T12:10:12;98938.53;;;11.23;34.90
66547;BME280;53400;50.364;14.874;2023-04-06T12:12:38;98931.31;;;11.23;36.47
66547;BME280;53400;50.364;14.874;2023-04-06T12:15:07;98942.63;;;11.42;33.88
66547;BME280;53400;50.364;14.874;2023-04-06T12:17:34;98941.22;;;10.94;32.89
66547;BME280;53400;50.364;14.874;2023-04-06T12:20:00;98927.53;;;10.39;33.81
66547;BME280;53400;50.364;14.874;2023-04-06T12:22:29;98931.13;;;10.56;34.67
66547;BME280;53400;50.364;14.874;2023-04-06T12:24:59;98932.44;;;10.70;35.59
66547;BME280;53400;50.364;14.874;2023-04-06T12:27:25;98927.88;;;10.83;32.27
66547;BME280;53400;50.364;14.874;2023-04-06T12:29:52;98922.97;;;10.79;34.40
66547;BME280;53400;50.364;14.874;2023-04-06T12:32:19;98918.31;;;11.32;35.92
66547;BME280;53400;50.364;14.874;2023-04-06T12:34:47;98922.84;;;11.32;34.26
66547;BME280;53400;50.364;14.874;2023-04-06T12:37:13;98921.75;;;11.44;33.33
66547;BME280;53400;50.364;14.874;2023-04-06T12:39:45;98918.09;;;11.51;33.39
66547;BME280;53400;50.364;14.874;2023-04-06T12:42:12;98914.63;;;11.21;33.43
66547;BME280;53400;50.364;14.874;2023-04-06T12:44:40;98916.72;;;10.33;33.79
66547;BME280;53400;50.364;14.874;2023-04-06T12:47:08;98917.38;;;10.41;34.78
66547;BME280;53400;50.364;14.874;2023-04-06T12:49:35;98902.63;;;10.15;34.56
66547;BME280;53400;50.364;14.874;2023-04-06T12:52:02;98902.44;;;9.93;35.03
66547;BME280;53400;50.364;14.874;2023-04-06T12:54:29;98911.81;;;10.19;34.10
66547;BME280;53400;50.364;14.874;2023-04-06T12:56:58;98899.25;;;10.31;33.60
66547;BME280;53400;50.364;14.874;2023-04-06T12:59:26;98899.59;;;10.34;34.37